sensor_id;sensor_type;location;lat;lon;timestamp;pressure;altitude;pressure_sealevel;temperature;humidity
44992;BME280;56865;51.618;7.406;2023-10-09T00:00:36;101224.13;;;18.60;100.00
44992;BME280;56865;51.618;7.406;2023-10-09T00:03:17;101216.38;;;18.66;100.00
44992;BME280;56865;51.618;7.406;2023-10-09T00:05:49;101219.84;;;18.72;100.00
44992;BME280;56865;51.618;7.406;2023-10-09T00:08:20;101215.53;;;18.72;100.00
44992;BME280;56865;51.618;7.406;2023-10-09T00:10:57;101214.66;;;18.67;100.00
44992;BME280;56865;51.618;7.406;2023-10-09T00:13:43;101218.97;;;18.63;100.00
44992;BME280;56865;51.618;7.406;2023-10-09T00:16:24;101224.09;;;18.52;100.00
44992;BME280;56865;51.618;7.406;2023-10-09T00:19:04;101211.22;;;18.65;100.00
44992;BME280;56865;51.618;7.406;2023-10-09T00:21:44;101211.25;;;18.68;100.00
44992;BME280;56865;51.618;7.406;2023-10-09T00:24:14;101209.50;;;18.70;100.00
44992;BME280;56865;51.618;7.406;2023-10-09T00:26:50;101199.22;;;18.87;100.00
44992;BME280;56865;51.618;7.406;2023-10-09T00:29:25;101201.78;;;18.76;100.00
44992;BME280;56865;51.618;7.406;2023-10-09T00:32:01;101194.91;;;18.88;100.00
44992;BME280;56865;51.618;7.406;2023-10-09T00:34:42;101196.66;;;18.90;100.00
44992;BME280;56865;51.618;7.406;2023-10-09T00:37:17;101207.03;;;19.13;100.00
44992;BME280;56865;51.618;7.406;2023-10-09T00:39:49;101198.41;;;19.17;100.00
44992;BME280;56865;51.618;7.406;2023-10-09T00:42:22;101193.25;;;19.22;100.00
44992;BME280;56865;51.618;7.406;2023-10-09T00:44:59;101189.78;;;19.20;100.00
44992;BME280;56865;51.618;7.406;2023-10-09T00:47:31;101185.47;;;19.39;100.00
44992;BME280;56865;51.618;7.406;2023-10-09T00:50:08;101183.75;;;19.46;100.00
44992;BME280;56865;51.618;7.406;2023-10-09T00:52:49;101178.59;;;19.37;100.00
44992;BME280;56865;51.618;7.406;2023-10-09T00:55:28;101176.00;;;19.49;100.00
44992;BME280;56865;51.618;7.406;2023-10-09T00:58:05;101174.25;;;19.59;100.00
44992;BME280;56865;51.618;7.406;2023-10-09T01:00:41;101154.44;;;19.61;100.00
44992;BME280;56865;51.618;7.406;2023-10-09T01:03:19;101153.53;;;19.70;100.00
44992;BME280;56865;51.618;7.406;2023-10-09T01:05:49;101155.28;;;19.66;100.00
44992;BME280;56865;51.618;7.406;2023-10-09T01:08:24;101157.00;;;19.58;100.00
44992;BME280;56865;51.618;7.406;2023-10-09T01:11:05;101160.47;;;19.57;100.00
44992;BME280;56865;51.618;7.406;2023-10-09T01:13:45;101159.59;;;19.58;100.00
44992;BME280;56865;51.618;7.406;2023-10-09T01:16:32;101158.72;;;19.71;100.00
44992;BME280;56865;51.618;7.406;2023-10-09T01:19:02;101162.16;;;19.70;100.00
44992;BME280;56865;51.618;7.406;2023-10-09T01:21:39;101163.88;;;19.84;100.00
44992;BME280;56865;51.618;7.406;2023-10-09T01:24:12;101168.16;;;19.85;100.00
44992;BME280;56865;51.618;7.406;2023-10-09T01:26:43;101174.19;;;19.90;100.00
44992;BME280;56865;51.618;7.406;2023-10-09T01:29:17;101173.34;;;19.94;100.00
44992;BME280;56865;51.618;7.406;2023-10-09T01:31:47;101167.31;;;19.90;100.00
44992;BME280;56865;51.618;7.406;2023-10-09T01:34:19;101161.25;;;19.99;100.00
44992;BME280;56865;51.618;7.406;2023-10-09T01:36:51;101156.06;;;19.99;100.00
44992;BME280;56865;51.618;7.406;2023-10-09T01:39:25;101159.56;;;19.89;100.00
44992;BME280;56865;51.618;7.406;2023-10-09T01:41:55;101164.66;;;20.04;100.00
44992;BME280;56865;51.618;7.406;2023-10-09T01:44:25;101157.78;;;19.97;100.00
44992;BME280;56865;51.618;7.406;2023-10-09T01:47:01;101167.25;;;20.09;100.00
44992;BME280;56865;51.618;7.406;2023-10-09T01:49:34;101167.28;;;19.93;100.00
44992;BME280;56865;51.618;7.406;2023-10-09T01:52:08;101164.72;;;19.95;100.00
44992;BME280;56865;51.618;7.406;2023-10-09T01:54:45;101162.94;;;20.12;100.00
44992;BME280;56865;51.618;7.406;2023-10-09T01:57:16;101157.78;;;20.06;100.00
44992;BME280;56865;51.618;7.406;2023-10-09T01:59:50;101151.69;;;20.15;100.00
44992;BME280;56865;51.618;7.406;2023-10-09T02:02:21;101151.63;;;20.26;100.00
44992;BME280;56865;51.618;7.406;2023-10-09T02:05:00;101151.69;;;20.13;100.00
44992;BME280;56865;51.618;7.406;2023-10-09T02:07:37;101143.88;;;20.20;100.00
44992;BME280;56865;51.618;7.406;2023-10-09T02:10:14;101148.22;;;20.19;100.00
44992;BME280;56865;51.618;7.406;2023-10-09T02:12:52;101143.81;;;20.37;100.00
44992;BME280;56865;51.618;7.406;2023-10-09T02:15:25;101147.31;;;20.28;100.00
44992;BME280;56865;51.618;7.406;2023-10-09T02:18:09;101149.84;;;20.36;100.00
44992;BME280;56865;51.618;7.406;2023-10-09T02:21:03;101149.88;;;20.34;100.00
44992;BME280;56865;51.618;7.406;2023-10-09T02:23:39;101150.72;;;20.30;100.00
44992;BME280;56865;51.618;7.406;2023-10-09T02:26:16;101146.44;;;20.27;100.00
44992;BME280;56865;51.618;7.406;2023-10-09T02:28:52;101137.75;;;20.41;100.00
44992;BME280;56865;51.618;7.406;2023-10-09T02:31:26;101133.47;;;20.37;100.00
44992;BME280;56865;51.618;7.406;2023-10-09T02:34:03;101125.66;;;20.43;100.00
44992;BME280;56865;51.618;7.406;2023-10-09T02:36:34;101130.81;;;20.41;100.00
44992;BME280;56865;51.618;7.406;2023-10-09T02:39:08;101133.34;;;20.57;100.00
44992;BME280;56865;51.618;7.406;2023-10-09T02:41:53;101135.13;;;20.47;100.00
44992;BME280;56865;51.618;7.406;2023-10-09T02:44:27;101135.06;;;20.55;100.00
44992;BME280;56865;51.618;7.406;2023-10-09T02:47:01;101130.78;;;20.51;100.00
44992;BME280;56865;51.618;7.406;2023-10-09T02:49:38;101129.88;;;20.58;100.00
44992;BME280;56865;51.618;7.406;2023-10-09T02:52:10;101121.34;;;20.42;100.00
44992;BME280;56865;51.618;7.406;2023-10-09T02:54:44;101128.13;;;20.63;100.00
44992;BME280;56865;51.618;7.406;2023-10-09T02:57:17;101116.91;;;20.59;100.00
44992;BME280;56865;51.618;7.406;2023-10-09T02:59:54;101119.41;;;20.70;100.00
44992;BME280;56865;51.618;7.406;2023-10-09T03:02:26;101110.75;;;20.77;100.00
44992;BME280;56865;51.618;7.406;2023-10-09T03:04:58;101120.31;;;20.66;100.00
44992;BME280;56865;51.618;7.406;2023-10-09T03:07:30;101109.03;;;20.76;100.00
44992;BME280;56865;51.618;7.406;2023-10-09T03:10:01;101119.38;;;20.80;100.00
44992;BME280;56865;51.618;7.406;2023-10-09T03:12:39;101115.88;;;20.84;100.00
44992;BME280;56865;51.618;7.406;2023-10-09T03:15:10;101110.81;;;20.73;100.00
44992;BME280;56865;51.618;7.406;2023-10-09T03:17:40;101112.44;;;20.82;100.00
44992;BME280;56865;51.618;7.406;2023-10-09T03:20:10;101111.59;;;20.81;100.00
44992;BME280;56865;51.618;7.406;2023-10-09T03:22:41;101112.44;;;20.83;100.00
44992;BME280;56865;51.618;7.406;2023-10-09T03:25:11;101097.69;;;20.90;100.00
44992;BME280;56865;51.618;7.406;2023-10-09T03:27:46;101084.84;;;20.77;100.00
44992;BME280;56865;51.618;7.406;2023-10-09T03:30:18;101085.69;;;20.81;100.00
44992;BME280;56865;51.618;7.406;2023-10-09T03:32:50;101095.13;;;20.88;100.00
44992;BME280;56865;51.618;7.406;2023-10-09T03:35:21;101086.50;;;20.89;100.00
44992;BME280;56865;51.618;7.406;2023-10-09T03:37:55;101084.75;;;20.90;100.00
44992;BME280;56865;51.618;7.406;2023-10-09T03:40:27;101077.81;;;20.92;100.00
44992;BME280;56865;51.618;7.406;2023-10-09T03:43:01;101068.34;;;20.89;100.00
44992;BME280;56865;51.618;7.406;2023-10-09T03:45:31;101069.28;;;20.81;100.00
44992;BME280;56865;51.618;7.406;2023-10-09T03:48:02;101066.47;;;21.04;100.00
44992;BME280;56865;51.618;7.406;2023-10-09T03:50:37;101069.34;;;20.71;100.00
44992;BME280;56865;51.618;7.406;2023-10-09T03:53:10;101069.91;;;21.06;100.00
44992;BME280;56865;51.618;7.406;2023-10-09T03:55:40;101063.91;;;20.99;100.00
44992;BME280;56865;51.618;7.406;2023-10-09T03:58:13;101056.06;;;21.08;100.00
44992;BME280;56865;51.618;7.406;2023-10-09T04:00:45;101044.91;;;21.00;100.00
44992;BME280;56865;51.618;7.406;2023-10-09T04:03:16;101057.91;;;20.97;100.00
44992;BME280;56865;51.618;7.406;2023-10-09T04:05:47;101062.00;;;21.17;100.00
44992;BME280;56865;51.618;7.406;2023-10-09T04:08:20;101058.56;;;21.16;100.00
44992;BME280;56865;51.618;7.406;2023-10-09T04:10:56;101054.28;;;21.14;100.00
44992;BME280;56865;51.618;7.406;2023-10-09T04:13:33;101055.38;;;20.89;100.00
44992;BME280;56865;51.618;7.406;2023-10-09T04:16:06;101049.09;;;21.14;100.00
44992;BME280;56865;51.618;7.406;2023-10-09T04:18:52;101054.28;;;21.14;100.00
44992;BME280;56865;51.618;7.406;2023-10-09T04:21:23;101056.81;;;21.20;100.00
44992;BME280;56865;51.618;7.406;2023-10-09T04:24:01;101067.16;;;21.21;100.00
44992;BME280;56865;51.618;7.406;2023-10-09T04:26:52;101058.53;;;21.21;100.00
44992;BME280;56865;51.618;7.406;2023-10-09T04:29:32;101049.06;;;21.15;100.00
44992;BME280;56865;51.618;7.406;2023-10-09T04:32:13;101043.03;;;21.16;100.00
44992;BME280;56865;51.618;7.406;2023-10-09T04:34:45;101032.81;;;20.99;100.00
44992;BME280;56865;51.618;7.406;2023-10-09T04:37:24;101051.59;;;21.21;100.00
44992;BME280;56865;51.618;7.406;2023-10-09T04:40:03;101051.59;;;21.23;100.00
44992;BME280;56865;51.618;7.406;2023-10-09T04:43:00;101049.88;;;21.23;100.00
44992;BME280;56865;51.618;7.406;2023-10-09T04:45:38;101049.06;;;21.18;100.00
44992;BME280;56865;51.618;7.406;2023-10-09T04:48:20;101048.47;;;20.88;100.00
44992;BME280;56865;51.618;7.406;2023-10-09T04:50:59;101056.00;;;21.15;100.00
44992;BME280;56865;51.618;7.406;2023-10-09T04:53:41;101058.59;;;21.15;100.00
44992;BME280;56865;51.618;7.406;2023-10-09T04:56:14;101065.34;;;21.28;100.00
44992;BME280;56865;51.618;7.406;2023-10-09T04:58:42;101068.75;;;21.33;100.00
44992;BME280;56865;51.618;7.406;2023-10-09T05:01:17;101065.38;;;21.26;100.00
44992;BME280;56865;51.618;7.406;2023-10-09T05:04:03;101045.47;;;21.29;100.00
44992;BME280;56865;51.618;7.406;2023-10-09T05:06:53;101043.84;;;21.20;100.00
44992;BME280;56865;51.618;7.406;2023-10-09T05:09:25;101050.84;;;21.11;100.00
44992;BME280;56865;51.618;7.406;2023-10-09T05:12:07;101054.09;;;21.29;100.00
44992;BME280;56865;51.618;7.406;2023-10-09T05:14:43;101054.09;;;21.32;100.00
44992;BME280;56865;51.618;7.406;2023-10-09T05:17:34;101064.47;;;21.31;100.00
44992;BME280;56865;51.618;7.406;2023-10-09T05:20:06;101075.09;;;21.07;100.00
44992;BME280;56865;51.618;7.406;2023-10-09T05:22:50;101082.63;;;21.29;100.00
44992;BME280;56865;51.618;7.406;2023-10-09T05:25:44;101086.03;;;21.37;100.00
44992;BME280;56865;51.618;7.406;2023-10-09T05:28:25;101092.47;;;20.96;100.00
44992;BME280;56865;51.618;7.406;2023-10-09T05:30:58;101094.06;;;21.11;100.00
44992;BME280;56865;51.618;7.406;2023-10-09T05:33:37;101108.66;;;21.20;100.00
44992;BME280;56865;51.618;7.406;2023-10-09T05:36:06;101105.13;;;21.25;100.00
44992;BME280;56865;51.618;7.406;2023-10-09T05:38:58;101097.28;;;21.33;100.00
44992;BME280;56865;51.618;7.406;2023-10-09T05:41:25;101110.66;;;20.90;100.00
44992;BME280;56865;51.618;7.406;2023-10-09T05:44:14;101118.31;;;21.04;100.00
44992;BME280;56865;51.618;7.406;2023-10-09T05:46:56;101109.56;;;21.16;100.00
44992;BME280;56865;51.618;7.406;2023-10-09T05:49:41;101103.53;;;21.14;100.00
44992;BME280;56865;51.618;7.406;2023-10-09T05:52:29;101104.31;;;21.23;100.00
44992;BME280;56865;51.618;7.406;2023-10-09T05:54:59;101097.34;;;21.25;100.00
44992;BME280;56865;51.618;7.406;2023-10-09T05:57:41;101114.75;;;21.17;100.00
44992;BME280;56865;51.618;7.406;2023-10-09T06:00:26;101118.97;;;21.26;100.00
44992;BME280;56865;51.618;7.406;2023-10-09T06:03:08;101118.88;;;21.38;100.00
44992;BME280;56865;51.618;7.406;2023-10-09T06:05:55;101124.22;;;21.17;100.00
44992;BME280;56865;51.618;7.406;2023-10-09T06:08:32;101127.66;;;21.23;100.00
44992;BME280;56865;51.618;7.406;2023-10-09T06:11:37;101132.72;;;21.34;100.00
44992;BME280;56865;51.618;7.406;2023-10-09T06:14:08;101126.13;;;21.01;100.00
44992;BME280;56865;51.618;7.406;2023-10-09T06:16:52;101122.66;;;21.03;100.00
44992;BME280;56865;51.618;7.406;2023-10-09T06:19:49;101140.03;;;20.89;100.00
44992;BME280;56865;51.618;7.406;2023-10-09T06:22:27;101149.25;;;21.24;100.00
44992;BME280;56865;51.618;7.406;2023-10-09T06:25:12;101145.81;;;21.23;100.00
44992;BME280;56865;51.618;7.406;2023-10-09T06:27:44;101149.25;;;21.22;100.00
44992;BME280;56865;51.618;7.406;2023-10-09T06:30:26;101143.16;;;21.26;100.00
44992;BME280;56865;51.618;7.406;2023-10-09T06:33:01;101147.34;;;21.41;100.00
44992;BME280;56865;51.618;7.406;2023-10-09T06:35:43;101143.00;;;21.43;100.00
44992;BME280;56865;51.618;7.406;2023-10-09T06:38:23;101133.41;;;21.50;100.00
44992;BME280;56865;51.618;7.406;2023-10-09T06:40:50;101136.94;;;21.43;100.00
44992;BME280;56865;51.618;7.406;2023-10-09T06:43:33;101142.06;;;21.49;100.00
44992;BME280;56865;51.618;7.406;2023-10-09T06:46:14;101152.41;;;21.55;100.00
44992;BME280;56865;51.618;7.406;2023-10-09T06:48:56;101157.63;;;21.51;100.00
44992;BME280;56865;51.618;7.406;2023-10-09T06:51:26;101150.69;;;21.57;100.00
44992;BME280;56865;51.618;7.406;2023-10-09T06:54:19;101143.72;;;21.63;100.00
44992;BME280;56865;51.618;7.406;2023-10-09T06:56:52;101146.44;;;21.44;100.00
44992;BME280;56865;51.618;7.406;2023-10-09T06:59:34;101135.94;;;21.61;100.00
44992;BME280;56865;51.618;7.406;2023-10-09T07:02:24;101131.69;;;21.51;100.00
44992;BME280;56865;51.618;7.406;2023-10-09T07:05:19;101142.00;;;21.60;100.00
44992;BME280;56865;51.618;7.406;2023-10-09T07:08:07;101140.16;;;21.71;100.00
44992;BME280;56865;51.618;7.406;2023-10-09T07:13:58;101146.22;;;21.70;100.00
44992;BME280;56865;51.618;7.406;2023-10-09T07:16:29;101152.44;;;21.51;100.00
44992;BME280;56865;51.618;7.406;2023-10-09T07:19:05;101168.13;;;21.40;100.00
44992;BME280;56865;51.618;7.406;2023-10-09T07:21:58;101174.81;;;21.64;100.00
44992;BME280;56865;51.618;7.406;2023-10-09T07:24:29;101184.19;;;21.78;100.00
44992;BME280;56865;51.618;7.406;2023-10-09T07:27:10;101190.31;;;21.70;100.00
44992;BME280;56865;51.618;7.406;2023-10-09T07:29:43;101188.56;;;21.71;100.00
44992;BME280;56865;51.618;7.406;2023-10-09T07:32:17;101188.66;;;21.63;100.00
44992;BME280;56865;51.618;7.406;2023-10-09T07:34:49;101187.69;;;21.75;100.00
44992;BME280;56865;51.618;7.406;2023-10-09T07:37:20;101176.06;;;21.20;100.00
44992;BME280;56865;51.618;7.406;2023-10-09T07:39:50;101159.44;;;21.42;100.00
44992;BME280;56865;51.618;7.406;2023-10-09T07:42:24;101118.63;;;21.62;100.00
44992;BME280;56865;51.618;7.406;2023-10-09T07:45:13;101101.31;;;21.62;100.00
44992;BME280;56865;51.618;7.406;2023-10-09T07:48:04;101110.00;;;21.61;100.00
44992;BME280;56865;51.618;7.406;2023-10-09T07:50:41;101143.25;;;21.19;100.00
44992;BME280;56865;51.618;7.406;2023-10-09T07:53:15;101161.72;;;21.73;100.00
44992;BME280;56865;51.618;7.406;2023-10-09T07:55:52;101150.31;;;21.90;100.00
44992;BME280;56865;51.618;7.406;2023-10-09T07:58:25;101145.50;;;21.56;100.00
44992;BME280;56865;51.618;7.406;2023-10-09T08:00:57;101140.97;;;21.73;100.00
44992;BME280;56865;51.618;7.406;2023-10-09T08:03:43;101154.16;;;21.56;100.00
44992;BME280;56865;51.618;7.406;2023-10-09T08:06:24;101149.69;;;21.68;100.00
44992;BME280;56865;51.618;7.406;2023-10-09T08:09:26;101162.34;;;21.99;100.00
44992;BME280;56865;51.618;7.406;2023-10-09T08:12:15;101158.03;;;21.95;100.00
44992;BME280;56865;51.618;7.406;2023-10-09T08:14:58;101162.72;;;21.65;100.00
44992;BME280;56865;51.618;7.406;2023-10-09T08:17:58;101175.66;;;21.66;100.00
44992;BME280;56865;51.618;7.406;2023-10-09T08:20:30;101169.44;;;21.80;100.00
44992;BME280;56865;51.618;7.406;2023-10-09T08:23:21;101186.66;;;21.88;100.00
44992;BME280;56865;51.618;7.406;2023-10-09T08:26:15;101193.59;;;21.88;100.00
44992;BME280;56865;51.618;7.406;2023-10-09T08:29:09;101194.06;;;21.40;100.00
44992;BME280;56865;51.618;7.406;2023-10-09T08:31:46;101206.19;;;21.35;100.00
44992;BME280;56865;51.618;7.406;2023-10-09T08:34:31;101220.34;;;21.96;100.00
44992;BME280;56865;51.618;7.406;2023-10-09T08:45:20;101188.28;;;21.99;100.00
44992;BME280;56865;51.618;7.406;2023-10-09T08:47:52;101188.16;;;22.08;100.00
44992;BME280;56865;51.618;7.406;2023-10-09T08:50:26;101192.59;;;22.01;100.00
44992;BME280;56865;51.618;7.406;2023-10-09T08:52:56;101192.41;;;22.14;100.00
44992;BME280;56865;51.618;7.406;2023-10-09T08:55:26;101169.88;;;22.17;100.00
44992;BME280;56865;51.618;7.406;2023-10-09T08:57:56;101161.53;;;21.92;100.00
44992;BME280;56865;51.618;7.406;2023-10-09T09:00:26;101146.47;;;22.20;100.00
44992;BME280;56865;51.618;7.406;2023-10-09T09:02:59;101141.38;;;22.13;100.00
44992;BME280;56865;51.618;7.406;2023-10-09T09:05:33;101130.91;;;22.19;100.00
44992;BME280;56865;51.618;7.406;2023-10-09T09:08:03;101124.06;;;22.13;100.00
44992;BME280;56865;51.618;7.406;2023-10-09T09:10:44;101098.91;;;22.17;100.00
44992;BME280;56865;51.618;7.406;2023-10-09T09:13:14;101096.72;;;21.86;100.00
44992;BME280;56865;51.618;7.406;2023-10-09T09:15:46;101052.19;;;22.14;100.00
44992;BME280;56865;51.618;7.406;2023-10-09T09:18:17;101059.81;;;21.62;100.00
44992;BME280;56865;51.618;7.406;2023-10-09T09:20:52;101055.53;;;22.25;100.00
44992;BME280;56865;51.618;7.406;2023-10-09T09:23:25;101048.38;;;22.41;100.00
44992;BME280;56865;51.618;7.406;2023-10-09T09:25:56;101053.88;;;22.18;100.00
44992;BME280;56865;51.618;7.406;2023-10-09T09:28:35;101055.50;;;22.27;100.00
44992;BME280;56865;51.618;7.406;2023-10-09T09:31:12;101068.19;;;22.48;100.00
44992;BME280;56865;51.618;7.406;2023-10-09T09:33:55;101086.19;;;22.58;100.00
44992;BME280;56865;51.618;7.406;2023-10-09T09:36:28;101088.59;;;22.70;100.00
44992;BME280;56865;51.618;7.406;2023-10-09T09:39:04;101088.34;;;22.85;100.00
44992;BME280;56865;51.618;7.406;2023-10-09T09:41:46;101075.31;;;22.88;100.00
44992;BME280;56865;51.618;7.406;2023-10-09T09:44:18;101085.50;;;23.01;100.00
44992;BME280;56865;51.618;7.406;2023-10-09T09:46:52;101083.94;;;22.89;100.00
44992;BME280;56865;51.618;7.406;2023-10-09T09:49:24;101101.53;;;22.75;100.00
44992;BME280;56865;51.618;7.406;2023-10-09T09:52:10;101117.66;;;22.97;100.00
44992;BME280;56865;51.618;7.406;2023-10-09T09:54:45;101132.16;;;23.09;100.00
44992;BME280;56865;51.618;7.406;2023-10-09T09:57:16;101142.25;;;23.29;100.00
44992;BME280;56865;51.618;7.406;2023-10-09T09:59:52;101146.69;;;23.24;100.00
44992;BME280;56865;51.618;7.406;2023-10-09T10:02:30;101157.13;;;23.20;100.00
44992;BME280;56865;51.618;7.406;2023-10-09T10:05:02;101159.88;;;23.10;100.00
44992;BME280;56865;51.618;7.406;2023-10-09T10:07:36;101174.69;;;23.06;100.00
44992;BME280;56865;51.618;7.406;2023-10-09T10:12:55;101161.31;;;23.31;100.00
44992;BME280;56865;51.618;7.406;2023-10-09T10:18:30;101163.94;;;23.28;100.00
44992;BME280;56865;51.618;7.406;2023-10-09T10:21:12;101154.59;;;23.64;100.00
44992;BME280;56865;51.618;7.406;2023-10-09T10:24:02;101143.09;;;23.29;100.00
44992;BME280;56865;51.618;7.406;2023-10-09T10:26:36;101148.84;;;23.47;100.00
44992;BME280;56865;51.618;7.406;2023-10-09T10:29:13;101143.75;;;23.41;100.00
44992;BME280;56865;51.618;7.406;2023-10-09T10:31:55;101133.22;;;23.48;100.00
44992;BME280;56865;51.618;7.406;2023-10-09T10:34:51;101145.72;;;23.75;100.00
44992;BME280;56865;51.618;7.406;2023-10-09T10:37:33;101147.00;;;23.52;100.00
44992;BME280;56865;51.618;7.406;2023-10-09T10:40:08;101142.91;;;23.40;100.00
44992;BME280;56865;51.618;7.406;2023-10-09T10:42:57;101147.50;;;23.27;100.00
44992;BME280;56865;51.618;7.406;2023-10-09T10:45:36;101143.25;;;23.68;100.00
44992;BME280;56865;51.618;7.406;2023-10-09T10:48:10;101149.63;;;23.53;100.00
44992;BME280;56865;51.618;7.406;2023-10-09T10:50:55;101157.78;;;23.79;100.00
44992;BME280;56865;51.618;7.406;2023-10-09T10:53:27;101152.09;;;23.58;100.00
44992;BME280;56865;51.618;7.406;2023-10-09T10:56:04;101150.03;;;23.77;100.00
44992;BME280;56865;51.618;7.406;2023-10-09T10:58:51;101147.66;;;23.65;100.00
44992;BME280;56865;51.618;7.406;2023-10-09T11:01:38;101156.63;;;23.95;100.00
44992;BME280;56865;51.618;7.406;2023-10-09T11:04:20;101169.28;;;24.12;100.00
44992;BME280;56865;51.618;7.406;2023-10-09T11:07:03;101157.00;;;24.19;100.00
44992;BME280;56865;51.618;7.406;2023-10-09T11:09:42;101167.59;;;24.10;100.00
44992;BME280;56865;51.618;7.406;2023-10-09T11:12:28;101163.31;;;24.09;100.00
44992;BME280;56865;51.618;7.406;2023-10-09T11:15:05;101176.25;;;24.51;100.00
44992;BME280;56865;51.618;7.406;2023-10-09T11:17:45;101178.19;;;24.43;100.00
44992;BME280;56865;51.618;7.406;2023-10-09T11:20:19;101181.19;;;24.63;100.00
44992;BME280;56865;51.618;7.406;2023-10-09T11:22:58;101174.50;;;24.53;100.00
44992;BME280;56865;51.618;7.406;2023-10-09T11:25:41;101170.25;;;24.47;100.00
44992;BME280;56865;51.618;7.406;2023-10-09T11:28:20;101176.91;;;24.61;100.00
44992;BME280;56865;51.618;7.406;2023-10-09T11:31:05;101174.09;;;24.72;100.00
44992;BME280;56865;51.618;7.406;2023-10-09T11:33:44;101172.97;;;24.82;100.00
44992;BME280;56865;51.618;7.406;2023-10-09T11:36:11;101176.94;;;24.98;100.00
44992;BME280;56865;51.618;7.406;2023-10-09T11:38:41;101179.28;;;25.08;100.00
44992;BME280;56865;51.618;7.406;2023-10-09T11:41:12;101181.91;;;25.08;100.00
44992;BME280;56865;51.618;7.406;2023-10-09T11:43:53;101181.53;;;25.23;100.00
44992;BME280;56865;51.618;7.406;2023-10-09T11:46:21;101186.28;;;25.07;100.00
44992;BME280;56865;51.618;7.406;2023-10-09T11:49:15;101175.66;;;24.40;100.00
44992;BME280;56865;51.618;7.406;2023-10-09T11:52:11;101169.94;;;25.01;100.00
44992;BME280;56865;51.618;7.406;2023-10-09T11:54:53;101166.97;;;24.78;100.00
44992;BME280;56865;51.618;7.406;2023-10-09T11:57:24;101163.94;;;24.97;100.00
44992;BME280;56865;51.618;7.406;2023-10-09T12:00:00;101166.50;;;24.98;100.00
44992;BME280;56865;51.618;7.406;2023-10-09T12:02:36;101164.28;;;24.83;100.00
44992;BME280;56865;51.618;7.406;2023-10-09T12:05:11;101168.22;;;24.99;100.00
44992;BME280;56865;51.618;7.406;2023-10-09T12:07:44;101158.31;;;25.12;100.00
44992;BME280;56865;51.618;7.406;2023-10-09T12:10:13;101162.78;;;25.07;100.00
44992;BME280;56865;51.618;7.406;2023-10-09T12:12:51;101163.44;;;25.15;100.00
44992;BME280;56865;51.618;7.406;2023-10-09T12:15:27;101173.28;;;25.04;100.00
44992;BME280;56865;51.618;7.406;2023-10-09T12:18:04;101173.00;;;25.17;100.00
44992;BME280;56865;51.618;7.406;2023-10-09T12:20:38;101164.84;;;25.29;100.00
44992;BME280;56865;51.618;7.406;2023-10-09T12:23:08;101165.13;;;25.18;100.00
44992;BME280;56865;51.618;7.406;2023-10-09T12:25:41;101163.44;;;25.17;100.00
44992;BME280;56865;51.618;7.406;2023-10-09T12:28:11;101162.34;;;25.24;100.00
44992;BME280;56865;51.618;7.406;2023-10-09T12:30:50;101178.59;;;25.01;100.00
44992;BME280;56865;51.618;7.406;2023-10-09T12:33:20;101172.91;;;24.85;100.00
44992;BME280;56865;51.618;7.406;2023-10-09T12:35:55;101177.72;;;25.02;100.00
44992;BME280;56865;51.618;7.406;2023-10-09T12:38:27;101174.38;;;24.95;100.00
44992;BME280;56865;51.618;7.406;2023-10-09T12:41:02;101179.53;;;24.98;100.00
44992;BME280;56865;51.618;7.406;2023-10-09T12:43:35;101182.72;;;25.10;100.00
44992;BME280;56865;51.618;7.406;2023-10-09T12:46:09;101180.50;;;24.94;100.00
44992;BME280;56865;51.618;7.406;2023-10-09T12:48:43;101182.19;;;24.95;100.00
44992;BME280;56865;51.618;7.406;2023-10-09T12:51:15;101171.84;;;24.92;100.00
44992;BME280;56865;51.618;7.406;2023-10-09T12:53:46;101182.78;;;25.07;100.00
44992;BME280;56865;51.618;7.406;2023-10-09T12:56:23;101189.19;;;25.29;100.00
44992;BME280;56865;51.618;7.406;2023-10-09T12:58:59;101182.28;;;25.28;100.00
44992;BME280;56865;51.618;7.406;2023-10-09T13:01:35;101177.72;;;25.02;100.00
44992;BME280;56865;51.618;7.406;2023-10-09T13:04:11;101176.38;;;25.20;100.00
44992;BME280;56865;51.618;7.406;2023-10-09T13:06:43;101186.22;;;25.09;100.00
44992;BME280;56865;51.618;7.406;2023-10-09T13:09:13;101180.31;;;25.02;100.00
44992;BME280;56865;51.618;7.406;2023-10-09T13:11:51;101189.81;;;25.05;100.00
44992;BME280;56865;51.618;7.406;2023-10-09T13:14:21;101191.69;;;24.99;100.00
44992;BME280;56865;51.618;7.406;2023-10-09T13:16:54;101168.06;;;25.06;100.00
44992;BME280;56865;51.618;7.406;2023-10-09T13:19:24;101169.34;;;24.88;100.00
44992;BME280;56865;51.618;7.406;2023-10-09T13:21:54;101158.44;;;25.08;100.00
44992;BME280;56865;51.618;7.406;2023-10-09T13:24:23;101152.72;;;24.93;100.00
44992;BME280;56865;51.618;7.406;2023-10-09T13:26:56;101158.81;;;24.92;100.00
44992;BME280;56865;51.618;7.406;2023-10-09T13:29:31;101153.50;;;24.97;100.00
44992;BME280;56865;51.618;7.406;2023-10-09T13:32:03;101155.66;;;24.79;100.00
44992;BME280;56865;51.618;7.406;2023-10-09T13:34:40;101158.50;;;24.69;100.00
44992;BME280;56865;51.618;7.406;2023-10-09T13:37:12;101151.69;;;24.99;100.00
44992;BME280;56865;51.618;7.406;2023-10-09T13:39:48;101151.00;;;24.92;100.00
44992;BME280;56865;51.618;7.406;2023-10-09T13:42:23;101149.13;;;24.97;100.00
44992;BME280;56865;51.618;7.406;2023-10-09T13:44:54;101154.19;;;24.69;100.00
44992;BME280;56865;51.618;7.406;2023-10-09T13:47:26;101153.91;;;24.80;100.00